createdAt,value
2019-02-18T00:04:16.006Z,10.90
2019-02-18T00:09:22.240Z,11.03
2019-02-18T00:14:28.451Z,10.77
2019-02-18T00:19:34.758Z,10.87
2019-02-18T00:24:41.020Z,11.40
2019-02-18T00:29:47.407Z,11.37
2019-02-18T00:34:53.726Z,10.23
2019-02-18T00:39:59.943Z,11.17
2019-02-18T00:45:06.656Z,10.90
2019-02-18T00:50:13.217Z,11.00
2019-02-18T00:55:19.420Z,10.53
2019-02-18T01:00:25.642Z,10.20
2019-02-18T01:05:31.860Z,10.43
2019-02-18T01:10:38.052Z,11.07
2019-02-18T01:15:44.347Z,10.10
2019-02-18T01:20:50.525Z,10.82
2019-02-18T01:25:56.837Z,10.80
2019-02-18T01:31:03.106Z,9.57
2019-02-18T01:36:09.331Z,10.33
2019-02-18T01:41:15.548Z,10.50
2019-02-18T01:46:21.853Z,10.43
2019-02-18T01:51:28.114Z,10.03
2019-02-18T01:56:34.458Z,9.75
2019-02-18T02:01:40.690Z,9.50
2019-02-18T02:06:46.919Z,9.17
2019-02-18T02:11:53.251Z,11.43
2019-02-18T02:17:00.727Z,9.45
2019-02-18T02:22:07.086Z,9.83
2019-02-18T02:27:13.409Z,10.00
2019-02-18T02:32:19.639Z,9.13
2019-02-18T02:37:25.999Z,9.97
2019-02-18T02:42:32.178Z,9.77
2019-02-18T02:47:38.480Z,9.73
2019-02-18T02:52:44.663Z,9.90
2019-02-18T02:57:50.893Z,9.90
2019-02-18T03:02:57.106Z,9.40
2019-02-18T03:08:04.520Z,9.13
2019-02-18T03:13:10.842Z,8.87
2019-02-18T03:18:17.025Z,8.03
2019-02-18T03:23:23.273Z,9.13
2019-02-18T03:29:22.255Z,9.48
2019-02-18T03:34:38.364Z,9.45
2019-02-18T03:39:44.566Z,9.55
2019-02-18T03:44:50.876Z,9.47
2019-02-18T03:49:57.102Z,9.53
2019-02-18T03:55:03.461Z,9.40
2019-02-18T04:00:10.098Z,9.30
2019-02-18T04:05:16.383Z,9.25
2019-02-18T04:10:22.596Z,9.08
2019-02-18T04:15:28.895Z,9.43
2019-02-18T04:20:35.112Z,8.90
2019-02-18T04:25:41.337Z,9.67
2019-02-18T04:30:47.550Z,9.10
2019-02-18T04:35:53.937Z,9.53
2019-02-18T04:41:00.554Z,9.53
2019-02-18T04:46:06.829Z,9.50
2019-02-18T04:51:13.111Z,9.57
2019-02-18T04:56:19.392Z,9.55
2019-02-18T05:01:25.603Z,9.50
2019-02-18T05:06:31.809Z,9.07
2019-02-18T05:11:38.082Z,9.03
2019-02-18T05:16:44.356Z,9.63
2019-02-18T05:21:50.574Z,9.60
2019-02-18T05:26:56.809Z,10.03
2019-02-18T05:32:03.046Z,10.03
2019-02-18T05:37:09.339Z,9.83
2019-02-18T05:42:15.525Z,9.58
2019-02-18T05:47:21.757Z,10.07
2019-02-18T05:52:28.036Z,10.03
2019-02-18T05:57:34.202Z,10.45
2019-02-18T06:02:40.431Z,9.97
2019-02-18T06:07:46.656Z,8.67
2019-02-18T06:12:52.830Z,9.23
2019-02-18T06:17:59.064Z,9.97
2019-02-18T06:23:05.501Z,9.73
2019-02-18T06:28:11.982Z,10.03
2019-02-18T06:33:18.474Z,10.43
2019-02-18T06:38:24.687Z,11.10
2019-02-18T06:43:31.012Z,11.03
2019-02-18T06:48:40.034Z,10.63
2019-02-18T06:53:46.419Z,11.50
2019-02-18T06:59:00.302Z,10.47
2019-02-18T07:04:20.700Z,9.50
2019-02-18T07:09:51.354Z,11.67
2019-02-18T07:14:52.820Z,12.50
2019-02-18T07:20:01.333Z,12.93
2019-02-18T07:25:30.455Z,12.93
2019-02-18T07:30:36.764Z,12.67
2019-02-18T07:35:43.334Z,11.97
2019-02-18T07:40:49.544Z,13.17
2019-02-18T07:45:56.146Z,12.97
2019-02-18T07:51:02.534Z,14.03
2019-02-18T07:56:08.852Z,16.10
2019-02-18T08:01:15.434Z,19.57
2019-02-18T08:06:21.686Z,17.70
2019-02-18T08:11:28.066Z,13.03
2019-02-18T08:16:34.496Z,14.33
2019-02-18T08:21:40.774Z,12.53
2019-02-18T08:26:47.041Z,11.40
2019-02-18T08:31:53.426Z,11.83
2019-02-18T08:36:59.816Z,11.60
2019-02-18T08:42:06.107Z,10.70
2019-02-18T08:47:12.443Z,10.53
2019-02-18T08:52:18.770Z,9.73
2019-02-18T08:57:25.089Z,10.73
2019-02-18T09:02:31.516Z,9.93
2019-02-18T09:07:38.102Z,10.03
2019-02-18T09:12:44.465Z,9.97
2019-02-18T09:17:50.784Z,10.70
2019-02-18T09:23:06.291Z,11.37
2019-02-18T09:28:12.708Z,8.20
2019-02-18T09:33:21.118Z,9.83
2019-02-18T09:38:29.157Z,8.83
2019-02-18T09:43:35.554Z,8.63
2019-02-18T09:48:41.898Z,8.40
2019-02-18T09:53:48.200Z,8.03
2019-02-18T09:58:58.953Z,8.77
2019-02-18T10:04:05.738Z,9.05
2019-02-18T10:09:15.552Z,7.93
2019-02-18T10:14:21.986Z,8.33
2019-02-18T10:19:28.315Z,8.57
2019-02-18T10:24:34.584Z,9.00
2019-02-18T10:29:43.965Z,9.53
2019-02-18T10:34:50.610Z,8.30
2019-02-18T10:39:59.669Z,9.47
2019-02-18T10:45:10.313Z,8.30
2019-02-18T10:50:18.705Z,9.18
2019-02-18T10:55:31.276Z,9.00
2019-02-18T11:00:41.235Z,9.27
2019-02-18T11:05:47.602Z,9.17
2019-02-18T11:10:56.120Z,9.10
2019-02-18T11:16:02.328Z,9.27
2019-02-18T11:21:11.115Z,9.50
2019-02-18T11:26:17.864Z,10.05
2019-02-18T11:31:24.116Z,9.30
2019-02-18T11:36:30.359Z,9.33
2019-02-18T11:41:36.941Z,9.50
2019-02-18T11:46:43.436Z,9.40
2019-02-18T11:51:55.571Z,9.57
2019-02-18T11:57:03.784Z,8.95
2019-02-18T12:02:10.066Z,9.83
2019-02-18T12:07:16.903Z,10.28
2019-02-18T12:12:23.410Z,9.80
2019-02-18T12:17:30.988Z,9.87
2019-02-18T12:22:39.218Z,8.80
2019-02-18T12:27:46.872Z,9.07
2019-02-18T12:32:53.112Z,9.50
2019-02-18T12:37:59.426Z,8.80
2019-02-18T12:43:05.924Z,8.73
2019-02-18T12:48:14.885Z,7.70
2019-02-18T12:53:24.405Z,8.10
2019-02-18T12:58:32.026Z,8.10
2019-02-18T13:03:38.460Z,6.65
2019-02-18T13:08:44.775Z,7.70
2019-02-18T13:13:51.121Z,6.80
2019-02-18T13:18:59.943Z,6.60
2019-02-18T13:24:06.418Z,6.70
2019-02-18T13:29:16.710Z,7.43
2019-02-18T13:34:25.920Z,7.07
2019-02-18T13:39:34.236Z,7.20
2019-02-18T13:44:40.602Z,7.60
2019-02-18T13:49:49.454Z,7.67
2019-02-18T13:54:55.799Z,7.72
2019-02-18T14:00:04.676Z,8.17
2019-02-18T14:05:11.992Z,7.47
2019-02-18T14:10:19.575Z,7.60
2019-02-18T14:15:25.964Z,8.23
2019-02-18T14:20:32.685Z,7.17
2019-02-18T14:25:39.122Z,7.43
2019-02-18T14:30:45.477Z,8.00
2019-02-18T14:35:52.768Z,8.90
2019-02-18T14:41:01.279Z,7.93
2019-02-18T14:46:09.332Z,9.13
2019-02-18T14:51:15.793Z,7.70
2019-02-18T14:56:22.253Z,7.77
2019-02-18T15:01:28.537Z,8.03
2019-02-18T15:06:37.497Z,8.20
2019-02-18T15:11:44.877Z,8.20
2019-02-18T15:16:51.317Z,8.60
2019-02-18T15:22:01.850Z,8.70
2019-02-18T15:27:08.646Z,8.53
2019-02-18T15:32:14.976Z,8.77
2019-02-18T15:37:21.512Z,8.87
2019-02-18T15:42:28.238Z,9.67
2019-02-18T15:47:34.613Z,8.80
2019-02-18T15:52:41.052Z,8.13
2019-02-18T15:57:47.749Z,8.80
2019-02-18T16:02:56.824Z,9.37
2019-02-18T16:08:03.237Z,9.10
2019-02-18T16:13:09.609Z,8.87
2019-02-18T16:18:16.058Z,9.30
2019-02-18T16:23:22.356Z,9.50
2019-02-18T16:28:29.292Z,9.40
2019-02-18T16:33:36.796Z,10.90
2019-02-18T16:38:43.144Z,9.50
2019-02-18T16:43:51.413Z,9.80
2019-02-18T16:48:58.161Z,11.03
2019-02-18T16:54:05.755Z,12.47
2019-02-18T16:59:12.182Z,13.10
2019-02-18T17:04:18.954Z,13.62
2019-02-18T17:09:25.284Z,11.63
2019-02-18T17:14:31.695Z,11.25
2019-02-18T17:19:39.821Z,11.63
2019-02-18T17:24:46.879Z,16.50
2019-02-18T17:29:53.199Z,13.50
2019-02-18T17:35:00.005Z,12.50
2019-02-18T17:40:06.875Z,12.33
2019-02-18T17:45:13.867Z,12.13
2019-02-18T17:50:21.274Z,12.63
2019-02-18T17:55:27.621Z,11.53
2019-02-18T18:00:34.859Z,11.67
2019-02-18T18:05:41.385Z,13.57
2019-02-18T18:10:47.883Z,13.87
2019-02-18T18:15:55.280Z,12.53
2019-02-18T18:21:02.984Z,12.75
2019-02-18T18:26:12.654Z,11.67
2019-02-18T18:31:19.511Z,12.20
2019-02-18T18:36:25.843Z,11.63
2019-02-18T18:41:32.166Z,10.83
2019-02-18T18:46:41.337Z,11.27
2019-02-18T18:51:50.456Z,10.77
2019-02-18T18:56:57.032Z,10.73
2019-02-18T19:02:06.836Z,11.18
2019-02-18T19:07:13.176Z,10.70
2019-02-18T19:12:19.515Z,11.17
2019-02-18T19:17:26.131Z,11.17
2019-02-18T19:22:33.000Z,10.83
2019-02-18T19:27:39.424Z,11.30
2019-02-18T19:32:48.359Z,12.27
2019-02-18T19:37:55.956Z,11.10
2019-02-18T19:43:02.673Z,10.00
2019-02-18T19:48:10.304Z,10.47
2019-02-18T19:53:16.527Z,10.43
2019-02-18T19:58:23.324Z,11.30
2019-02-18T20:03:29.679Z,10.30
2019-02-18T20:08:36.549Z,10.87
2019-02-18T20:13:43.061Z,10.77
2019-02-18T20:18:51.311Z,10.47
2019-02-18T20:23:57.597Z,11.12
2019-02-18T20:29:04.212Z,10.80
2019-02-18T20:34:11.017Z,10.85
2019-02-18T20:39:17.399Z,11.60
2019-02-18T20:44:23.839Z,11.78
2019-02-18T20:49:30.071Z,11.10
2019-02-18T20:54:36.371Z,10.95
2019-02-18T20:59:42.723Z,10.57
2019-02-18T21:04:50.476Z,10.90
2019-02-18T21:09:58.673Z,9.63
2019-02-18T21:15:05.794Z,9.80
2019-02-18T21:20:12.735Z,9.83
2019-02-18T21:25:20.173Z,9.07
2019-02-18T21:30:26.474Z,9.00
2019-02-18T21:35:32.788Z,9.10
2019-02-18T21:40:39.161Z,9.80
2019-02-18T21:45:46.022Z,9.17
2019-02-18T21:50:52.699Z,9.37
2019-02-18T21:55:59.038Z,9.27
2019-02-18T22:01:05.424Z,9.87
2019-02-18T22:06:11.859Z,9.03
2019-02-18T22:11:18.448Z,9.17
2019-02-18T22:16:24.643Z,9.50
2019-02-18T22:21:33.005Z,9.87
2019-02-18T22:26:39.411Z,9.40
2019-02-18T22:31:45.642Z,9.40
2019-02-18T22:36:51.988Z,9.30
2019-02-18T22:41:58.276Z,8.93
2019-02-18T22:47:05.858Z,9.40
2019-02-18T22:52:12.108Z,9.53
2019-02-18T22:57:21.276Z,8.77
2019-02-18T23:02:27.735Z,9.53
2019-02-18T23:07:34.216Z,8.87
2019-02-18T23:12:40.598Z,8.70
2019-02-18T23:17:46.854Z,9.27
2019-02-18T23:22:56.156Z,9.00
2019-02-18T23:28:02.420Z,8.73
2019-02-18T23:33:09.084Z,9.30
2019-02-18T23:38:15.411Z,9.18
2019-02-18T23:43:24.447Z,10.17
2019-02-18T23:48:30.713Z,9.00
2019-02-18T23:53:36.943Z,9.50
2019-02-18T23:58:43.193Z,9.13
